Terminal Aerodrome Forecast
Issued by NWS Corpus Christi, TX

Home | Current Version | Previous Version | Text Only | Print | Product List | Glossary On
Versions: 1 2 3 4 5 6 7 8 9 10 11 12 13 14 15 16 17 18 19 20
000
FTUS44 KCRP 291100
TAFVCT
TAF
KVCT 291122Z 2912/3012 VRB03KT P6SM SKC
      TEMPO 2912/2913 6SM BR
     FM300600 14004KT 5SM BR FEW005 SCT050
      TEMPO 3008/3012 3SM BR BKN005=

USA.gov is the U.S. government's official web portal to all federal, state and local government web resources and services.